Time;durP1;ratioP1;P1;durP2;ratioP2;P2;SDS_P1;SDS_P2;PMS_P1;PMS_P2;Temp;Humidity;BMP_temperature;BMP_pressure;BME280_temperature;BME280_humidity;BME280_pressure;Samples;Min_cycle;Max_cycle;Signal;HPM_P1;HPM_P2
2021/09/11 00:00:41;;;;;;;26.23;13.13;;;;;;;10.31;97.25;100407.05;1706412;82;21072;-77
2021/09/11 00:03:08;;;;;;;23.57;11.93;;;;;;;10.28;97.25;100401.00;1709498;82;21792;-78
2021/09/11 00:05:35;;;;;;;23.90;12.30;;;;;;;10.27;97.31;100401.01;1726878;82;21030;-78
2021/09/11 00:08:01;;;;;;;20.25;12.03;;;;;;;10.25;97.48;100405.00;1703676;82;21154;-77
2021/09/11 00:10:30;;;;;;;20.82;12.53;;;;;;;10.24;97.52;100404.61;1734686;82;21173;-79
2021/09/11 00:12:59;;;;;;;23.05;12.18;;;;;;;10.21;97.50;100408.62;1725351;82;21568;-78
2021/09/11 00:15:31;;;;;;;20.70;11.35;;;;;;;10.22;97.66;100409.52;1724534;82;21034;-78
2021/09/11 00:18:02;;;;;;;21.37;11.88;;;;;;;10.19;97.74;100405.21;1731840;82;21116;-77
2021/09/11 00:20:30;;;;;;;20.30;11.88;;;;;;;10.21;98.00;100402.05;1723957;81;21073;-77
2021/09/11 00:22:58;;;;;;;21.93;12.93;;;;;;;10.22;98.08;100402.94;1732872;82;21050;-79
2021/09/11 00:25:24;;;;;;;27.37;13.50;;;;;;;10.22;98.21;100409.05;1725978;82;21023;-78
2021/09/11 00:27:51;;;;;;;23.98;12.47;;;;;;;10.22;98.20;100407.73;1727453;82;21181;-79
2021/09/11 00:30:19;;;;;;;17.95;11.78;;;;;;;10.19;98.16;100406.52;1715120;82;21060;-78
2021/09/11 00:32:46;;;;;;;19.37;12.05;;;;;;;10.17;98.12;100410.09;1721136;82;21029;-77
2021/09/11 00:35:14;;;;;;;20.35;11.53;;;;;;;10.13;98.16;100408.02;1713605;82;21046;-78
2021/09/11 00:37:41;;;;;;;23.10;11.80;;;;;;;10.10;98.30;100409.44;1727871;82;21620;-79
2021/09/11 00:40:10;;;;;;;18.80;11.35;;;;;;;10.07;98.45;100406.87;1727437;82;21521;-78
2021/09/11 00:42:37;;;;;;;18.10;11.60;;;;;;;10.04;98.54;100409.62;1733258;81;21011;-77
2021/09/11 00:45:08;;;;;;;19.17;12.90;;;;;;;10.00;98.50;100404.03;1719704;81;21042;-77
2021/09/11 00:47:35;;;;;;;19.65;11.03;;;;;;;9.98;98.60;100407.16;1736404;82;21042;-78
2021/09/11 00:50:03;;;;;;;23.52;13.22;;;;;;;9.94;98.61;100402.89;1736151;82;21120;-79
2021/09/11 00:52:29;;;;;;;18.75;12.63;;;;;;;9.94;98.79;100405.52;1732450;82;21104;-77
2021/09/11 00:54:56;;;;;;;20.32;11.08;;;;;;;9.93;98.76;100402.50;1715367;82;21015;-78
2021/09/11 00:57:22;;;;;;;27.05;12.47;;;;;;;9.93;98.67;100402.03;1742068;81;20999;-77
2021/09/11 00:59:49;;;;;;;19.92;11.55;;;;;;;9.93;98.98;100408.61;1740986;81;21002;-77
2021/09/11 01:02:15;;;;;;;24.32;12.95;;;;;;;9.93;99.12;100407.30;1742314;81;21043;-77
2021/09/11 01:04:43;;;;;;;19.77;11.85;;;;;;;9.91;99.23;100411.74;1743011;81;22028;-78
2021/09/11 01:07:10;;;;;;;24.87;12.65;;;;;;;9.91;99.17;100414.38;1741987;82;21029;-78
2021/09/11 01:09:37;;;;;;;21.45;11.88;;;;;;;9.90;99.16;100411.80;1739648;81;21053;-77
2021/09/11 01:12:06;;;;;;;16.75;11.22;;;;;;;9.87;99.12;100404.88;1740512;81;21017;-78
2021/09/11 01:14:32;;;;;;;19.77;12.18;;;;;;;9.85;99.39;100410.17;1739096;81;21117;-78
2021/09/11 01:16:59;;;;;;;28.15;14.20;;;;;;;9.84;99.66;100404.48;1739945;81;21956;-79
2021/09/11 01:19:25;;;;;;;24.63;13.32;;;;;;;9.84;99.67;100411.05;1740296;81;20998;-79
2021/09/11 01:21:51;;;;;;;23.67;13.75;;;;;;;9.81;99.47;100408.98;1740488;81;21094;-76
2021/09/11 01:24:18;;;;;;;19.87;11.95;;;;;;;9.79;99.54;100412.97;1740237;81;21511;-77
2021/09/11 01:26:50;;;;;;;20.72;12.33;;;;;;;9.77;99.49;100406.89;1740648;81;21013;-76
2021/09/11 01:29:17;;;;;;;22.48;12.82;;;;;;;9.74;99.51;100406.98;1739598;81;21113;-77
2021/09/11 01:31:43;;;;;;;18.23;11.63;;;;;;;9.72;99.75;100406.16;1741558;81;21164;-77
2021/09/11 01:34:10;;;;;;;26.12;13.32;;;;;;;9.72;99.90;100405.31;1741818;81;21123;-77
2021/09/11 01:36:37;;;;;;;24.23;13.88;;;;;;;9.72;100.00;100402.22;1742937;81;21097;-77
2021/09/11 01:39:03;;;;;;;25.77;12.23;;;;;;;9.70;99.99;100407.98;1741595;81;21050;-78
2021/09/11 01:41:30;;;;;;;23.20;12.90;;;;;;;9.65;99.90;100401.53;1739002;81;21144;-77
2021/09/11 01:43:57;;;;;;;20.80;13.03;;;;;;;9.65;100.00;100399.36;1743821;81;21886;-77
2021/09/11 01:46:25;;;;;;;32.98;14.15;;;;;;;9.64;100.00;100402.91;1742678;81;21019;-78
2021/09/11 01:48:52;;;;;;;25.50;13.30;;;;;;;9.61;99.95;100401.67;1744287;81;21038;-77
2021/09/11 01:51:19;;;;;;;20.95;13.45;;;;;;;9.56;99.86;100404.42;1743010;81;21105;-79
2021/09/11 01:53:45;;;;;;;24.15;12.20;;;;;;;9.51;99.85;100398.45;1741735;81;21789;-78
2021/09/11 01:56:12;;;;;;;20.27;11.75;;;;;;;9.48;99.90;100401.59;1741544;81;21080;-78
2021/09/11 01:58:39;;;;;;;23.47;14.15;;;;;;;9.45;99.91;100396.86;1743078;81;21127;-77
2021/09/11 02:01:05;;;;;;;20.50;12.82;;;;;;;9.45;100.00;100392.92;1740496;81;21033;-79
2021/09/11 02:03:33;;;;;;;26.37;13.13;;;;;;;9.44;100.00;100396.44;1743774;81;21011;-75
2021/09/11 02:06:00;;;;;;;26.65;12.95;;;;;;;9.41;100.00;100399.16;1746553;81;21127;-77
2021/09/11 02:08:29;;;;;;;18.92;11.93;;;;;;;9.38;100.00;100399.23;1741428;81;20986;-78
2021/09/11 02:10:56;;;;;;;23.83;12.47;;;;;;;9.34;100.00;100388.84;1741073;81;21066;-78
2021/09/11 02:13:23;;;;;;;24.00;13.05;;;;;;;9.36;100.00;100402.81;1739593;81;21044;-77
2021/09/11 02:15:50;;;;;;;20.80;13.40;;;;;;;9.32;100.00;100398.10;1739197;81;22053;-78
2021/09/11 02:18:16;;;;;;;26.05;12.90;;;;;;;9.31;100.00;100397.67;1740144;81;21470;-78
2021/09/11 02:20:44;;;;;;;20.25;11.95;;;;;;;9.27;100.00;100392.55;1741892;81;21022;-77
2021/09/11 02:23:11;;;;;;;22.95;12.98;;;;;;;9.28;100.00;100397.77;1739660;81;21050;-78
2021/09/11 02:25:38;;;;;;;26.95;12.68;;;;;;;9.26;100.00;100399.58;1740732;81;21050;-77
2021/09/11 02:28:05;;;;;;;20.60;11.70;;;;;;;9.26;100.00;100403.52;1740908;81;21049;-79
2021/09/11 02:30:31;;;;;;;21.02;12.37;;;;;;;9.27;100.00;100403.95;1737324;81;21115;-76
2021/09/11 02:32:58;;;;;;;21.62;12.58;;;;;;;9.27;100.00;100403.95;1741630;81;21046;-77
2021/09/11 02:35:25;;;;;;;20.90;12.15;;;;;;;9.28;100.00;100402.17;1741530;82;21042;-78
2021/09/11 02:37:52;;;;;;;23.42;12.30;;;;;;;9.27;100.00;100401.31;1740720;81;21026;-78
2021/09/11 02:40:20;;;;;;;20.00;11.53;;;;;;;9.26;100.00;100395.63;1738458;81;21076;-75
2021/09/11 02:42:48;;;;;;;22.07;12.03;;;;;;;9.27;100.00;100397.80;1741553;81;21078;-77
2021/09/11 02:45:16;;;;;;;20.25;11.85;;;;;;;9.28;100.00;100402.17;1744843;81;21018;-78
2021/09/11 02:47:44;;;;;;;24.90;12.75;;;;;;;9.27;100.00;100405.69;1743000;81;21069;-80
2021/09/11 02:50:11;;;;;;;20.45;12.35;;;;;;;9.27;100.00;100403.95;1745954;81;21037;-77
2021/09/11 02:52:38;;;;;;;21.00;12.73;;;;;;;9.26;100.00;100407.46;1741948;81;21211;-77
2021/09/11 02:55:06;;;;;;;23.95;12.60;;;;;;;9.25;100.00;100403.13;1743944;82;21119;-78
2021/09/11 02:57:32;;;;;;;22.27;11.83;;;;;;;9.22;100.00;100399.24;1714460;81;21154;-77
2021/09/11 02:59:59;;;;;;;19.75;11.50;;;;;;;9.21;100.00;100398.84;1716120;82;21195;-78
2021/09/11 03:02:26;;;;;;;22.42;12.45;;;;;;;9.20;100.00;100402.36;1773005;80;21042;-76
2021/09/11 03:04:52;;;;;;;23.38;12.60;;;;;;;9.19;100.00;100401.97;1764866;80;21041;-77
2021/09/11 03:07:23;;;;;;;16.70;11.50;;;;;;;9.17;100.00;100398.51;1772608;80;20938;-77
2021/09/11 03:09:50;;;;;;;20.23;11.38;;;;;;;9.16;100.00;100395.03;1768945;80;20998;-75
2021/09/11 03:12:16;;;;;;;19.98;10.90;;;;;;;9.16;100.00;100396.80;1764276;80;20975;-76
2021/09/11 03:14:43;;;;;;;17.27;10.85;;;;;;;9.17;100.00;100395.42;1745839;80;20999;-78
2021/09/11 03:17:10;;;;;;;26.07;12.07;;;;;;;9.18;100.00;100397.17;1759398;80;21052;-78
2021/09/11 03:19:36;;;;;;;20.40;11.45;;;;;;;9.20;100.00;100399.73;1757198;80;21038;-79
2021/09/11 03:22:04;;;;;;;19.12;11.63;;;;;;;9.23;100.00;100407.55;1764463;80;21029;-79
2021/09/11 03:24:31;;;;;;;20.52;11.18;;;;;;;9.22;100.00;100398.81;1757766;80;21085;-78
2021/09/11 03:26:59;;;;;;;23.45;11.70;;;;;;;9.23;100.00;100400.98;1770204;80;21025;-78
2021/09/11 03:29:27;;;;;;;22.85;12.68;;;;;;;9.25;100.00;100405.75;1764089;80;21085;-78
2021/09/11 03:31:53;;;;;;;17.85;10.20;;;;;;;9.27;100.00;100400.00;1757835;80;21097;-77
2021/09/11 03:34:20;;;;;;;23.27;11.90;;;;;;;9.27;100.00;100409.20;1746591;80;21485;-79
2021/09/11 03:38:31;;;;;;;23.67;12.43;;;;;;;9.34;100.00;100400.67;1814726;79;28743;-77
2021/09/11 03:40:59;;;;;;;19.73;12.05;;;;;;;9.29;100.00;100405.20;1787928;80;21536;-78
2021/09/11 03:43:25;;;;;;;18.73;11.97;;;;;;;9.28;100.00;100405.66;1787841;80;21506;-79
2021/09/11 03:45:53;;;;;;;24.77;12.78;;;;;;;9.30;100.00;100405.16;1787701;80;21547;-78
2021/09/11 03:48:20;;;;;;;24.20;11.60;;;;;;;9.34;100.00;100411.18;1788236;80;21010;-79
2021/09/11 03:50:48;;;;;;;26.62;12.95;;;;;;;9.34;100.00;100406.81;1787737;80;21002;-78
2021/09/11 03:53:15;;;;;;;20.30;12.25;;;;;;;9.38;100.00;100407.11;1788010;80;21625;-78
2021/09/11 03:55:43;;;;;;;21.20;12.00;;;;;;;9.40;100.00;100402.68;1771832;80;20978;-78
2021/09/11 03:58:13;;;;;;;24.57;11.93;;;;;;;9.44;100.00;100406.95;1756631;81;21540;-78
2021/09/11 04:00:39;;;;;;;20.48;11.45;;;;;;;9.50;100.00;100411.62;1756660;81;22185;-78
2021/09/11 04:03:06;;;;;;;19.52;10.90;;;;;;;9.65;100.00;100408.11;1756695;81;21536;-78
2021/09/11 04:05:34;;;;;;;16.45;12.00;;;;;;;10.06;100.00;100413.06;1756611;81;21133;-77
2021/09/11 04:08:00;;;;;;;20.77;12.10;;;;;;;10.48;100.00;100416.15;1756431;81;21154;-78
2021/09/11 04:10:28;;;;;;;21.60;12.20;;;;;;;10.88;99.71;100406.06;1756572;81;20994;-77
2021/09/11 04:12:55;;;;;;;19.70;11.40;;;;;;;11.29;98.07;100403.77;1756322;81;21006;-78
2021/09/11 04:15:22;;;;;;;18.45;11.10;;;;;;;11.72;96.67;100406.17;1756724;81;22282;-79
2021/09/11 04:17:49;;;;;;;19.27;11.40;;;;;;;12.16;95.05;100404.97;1756623;81;21045;-78
2021/09/11 04:20:17;;;;;;;20.37;10.43;;;;;;;12.59;92.94;100408.54;1756392;81;21532;-79
2021/09/11 04:22:45;;;;;;;19.65;11.88;;;;;;;13.04;90.90;100408.84;1756118;81;21061;-79
2021/09/11 04:25:13;;;;;;;21.17;10.85;;;;;;;13.47;88.33;100410.98;1764961;80;21092;-80
2021/09/11 04:27:39;;;;;;;18.27;10.38;;;;;;;13.85;86.22;100411.05;1787294;80;21100;-79
2021/09/11 04:30:07;;;;;;;17.23;10.50;;;;;;;14.16;84.13;100408.28;1787677;80;21607;-80
2021/09/11 04:32:33;;;;;;;18.35;10.68;;;;;;;14.52;82.17;100411.42;1787561;80;22188;-78
2021/09/11 04:35:01;;;;;;;18.42;10.53;;;;;;;14.82;80.69;100401.98;1787437;80;21060;-79
2021/09/11 04:37:30;;;;;;;17.57;10.25;;;;;;;15.13;78.96;100400.41;1784825;80;20998;-78
2021/09/11 04:39:56;;;;;;;20.17;11.40;;;;;;;15.47;77.07;100407.94;1782514;80;21100;-79
2021/09/11 04:42:24;;;;;;;20.48;11.45;;;;;;;15.74;75.80;100409.63;1782145;80;21563;-79
2021/09/11 04:44:50;;;;;;;21.42;12.50;;;;;;;15.99;73.71;100405.16;1782231;80;22233;-78
2021/09/11 04:47:18;;;;;;;20.75;11.30;;;;;;;16.21;73.43;100401.30;1782042;80;21120;-78
2021/09/11 04:49:45;;;;;;;17.70;10.03;;;;;;;16.44;72.13;100399.52;1781641;80;21100;-79
2021/09/11 04:52:11;;;;;;;20.90;11.75;;;;;;;16.61;71.26;100398.58;1781950;80;21092;-78
2021/09/11 04:54:38;;;;;;;17.40;10.65;;;;;;;16.67;70.64;100398.20;1779869;80;21056;-79
2021/09/11 04:57:05;;;;;;;19.23;11.08;;;;;;;16.73;70.13;100404.98;1744399;82;22011;-79
2021/09/11 04:59:32;;;;;;;16.80;10.90;;;;;;;16.85;69.85;100401.62;1744593;82;21054;-80
2021/09/11 05:01:58;;;;;;;24.55;10.65;;;;;;;16.98;69.59;100401.29;1744868;82;21101;-78
2021/09/11 05:04:24;;;;;;;23.35;11.20;;;;;;;17.10;68.80;100400.18;1744757;82;21062;-77
2021/09/11 05:06:55;;;;;;;23.18;10.32;;;;;;;17.38;68.39;100397.55;1747075;82;21050;-78
2021/09/11 05:09:27;;;;;;;20.77;9.68;;;;;;;17.81;67.22;100396.73;1746385;82;21038;-78
2021/09/11 05:11:54;;;;;;;15.93;9.95;;;;;;;18.40;65.92;100400.05;1746814;82;21042;-79
2021/09/11 05:14:22;;;;;;;16.75;9.35;;;;;;;19.00;64.07;100393.42;1744834;82;21053;-79
2021/09/11 05:16:48;;;;;;;25.45;10.43;;;;;;;19.63;62.16;100390.88;1744827;82;21112;-78
2021/09/11 05:19:15;;;;;;;31.02;10.13;;;;;;;20.19;60.04;100375.26;1745144;82;21085;-78
2021/09/11 05:21:43;;;;;;;26.85;10.18;;;;;;;20.61;58.50;100375.73;1744999;82;21057;-78
2021/09/11 05:24:10;;;;;;;19.52;8.43;;;;;;;21.06;57.27;100371.89;1745437;82;21084;-78
2021/09/11 05:26:38;;;;;;;20.80;8.98;;;;;;;21.53;56.27;100381.23;1746780;82;21059;-79
2021/09/11 05:29:05;;;;;;;20.27;9.35;;;;;;;22.04;54.78;100383.41;1747687;82;21094;-79
2021/09/11 05:31:33;;;;;;;24.60;10.38;;;;;;;22.39;53.66;100381.89;1747955;82;20948;-80
2021/09/11 05:33:59;;;;;;;21.00;8.23;;;;;;;22.81;52.56;100379.27;1749001;82;21404;-79
2021/09/11 05:36:26;;;;;;;34.70;9.20;;;;;;;23.25;51.64;100378.69;1749260;82;21036;-79
2021/09/11 05:38:52;;;;;;;21.97;9.58;;;;;;;23.69;50.20;100378.98;1748748;82;20935;-81
2021/09/11 05:41:19;;;;;;;18.25;8.20;;;;;;;23.98;49.28;100377.27;1748352;82;21050;-77
2021/09/11 05:43:45;;;;;;;15.95;8.68;;;;;;;24.41;48.74;100380.13;1748230;82;21010;-79
2021/09/11 05:46:11;;;;;;;20.02;8.13;;;;;;;24.98;47.18;100374.05;1744969;82;21113;-78
2021/09/11 05:48:38;;;;;;;18.15;7.92;;;;;;;25.53;45.39;100368.83;1744555;82;21019;-79
2021/09/11 05:51:04;;;;;;;19.12;8.48;;;;;;;26.04;43.80;100370.17;1744657;82;21379;-77
2021/09/11 05:53:32;;;;;;;13.72;7.87;;;;;;;26.50;42.52;100366.97;1744478;82;21137;-80
2021/09/11 05:55:59;;;;;;;15.45;7.87;;;;;;;26.91;41.61;100365.98;1756648;81;21017;-77
2021/09/11 05:58:25;;;;;;;12.95;7.90;;;;;;;27.34;40.29;100365.64;1766689;81;21493;-77
2021/09/11 06:00:52;;;;;;;14.25;8.05;;;;;;;27.77;39.34;100365.19;1764127;81;21065;-77
2021/09/11 06:03:18;;;;;;;24.32;8.45;;;;;;;28.10;38.51;100363.98;1764050;81;21018;-77
2021/09/11 06:05:44;;;;;;;11.90;7.78;;;;;;;28.47;37.66;100363.25;1763830;81;21101;-80
2021/09/11 06:08:11;;;;;;;14.50;7.72;;;;;;;28.84;36.46;100358.69;1763876;81;21497;-78
2021/09/11 06:10:38;;;;;;;13.65;7.87;;;;;;;29.15;35.57;100364.77;1763627;81;21525;-78
2021/09/11 06:13:06;;;;;;;15.98;8.88;;;;;;;29.47;35.02;100354.36;1685930;85;21073;-79
2021/09/11 06:15:35;;;;;;;18.02;8.70;;;;;;;29.87;34.53;100360.19;1763822;81;21033;-79
2021/09/11 06:18:01;;;;;;;19.60;9.55;;;;;;;30.06;34.14;100360.77;1686222;85;21577;-77
2021/09/11 06:20:30;;;;;;;19.50;9.10;;;;;;;30.12;33.58;100361.42;1763968;81;21053;-77
2021/09/11 06:22:57;;;;;;;16.60;9.35;;;;;;;30.15;33.48;100354.27;1763840;81;21157;-78
2021/09/11 06:25:24;;;;;;;19.52;9.85;;;;;;;30.37;33.28;100362.64;1763727;81;21022;-79
2021/09/11 06:27:57;;;;;;;14.38;9.25;;;;;;;30.58;32.69;100369.64;1764059;81;21041;-78
2021/09/11 06:30:25;;;;;;;18.32;8.75;;;;;;;30.72;32.00;100368.84;1763986;81;21017;-76
2021/09/11 06:32:51;;;;;;;13.80;9.60;;;;;;;30.83;32.08;100365.34;1763922;81;21137;-79
2021/09/11 06:35:17;;;;;;;13.83;9.13;;;;;;;30.97;30.95;100367.31;1686343;85;22081;-79
2021/09/11 06:37:44;;;;;;;18.98;9.78;;;;;;;31.00;31.25;100368.81;1762703;81;22199;-77
2021/09/11 06:40:13;;;;;;;15.23;8.80;;;;;;;31.18;31.04;100358.96;1681398;84;21030;-77
2021/09/11 06:42:40;;;;;;;16.97;9.73;;;;;;;31.33;30.83;100358.44;1758809;81;21046;-78
2021/09/11 06:45:08;;;;;;;20.15;10.72;;;;;;;31.44;29.74;100358.01;1682457;85;21062;-78
2021/09/11 06:47:36;;;;;;;18.30;9.40;;;;;;;31.51;29.55;100356.22;1761548;81;21943;-77
2021/09/11 06:50:03;;;;;;;15.95;9.53;;;;;;;31.55;29.62;100350.73;1684070;84;21032;-78
2021/09/11 06:52:30;;;;;;;16.25;9.83;;;;;;;31.84;29.44;100353.12;1711168;84;21035;-78
2021/09/11 06:54:57;;;;;;;20.10;10.58;;;;;;;32.18;28.87;100359.81;1755632;81;21577;-79
2021/09/11 06:57:23;;;;;;;17.07;10.08;;;;;;;32.11;28.11;100361.63;1742915;82;21078;-80
2021/09/11 06:59:50;;;;;;;19.98;10.05;;;;;;;32.10;28.55;100361.31;1742997;82;21150;-78
2021/09/11 07:02:17;;;;;;;18.95;9.58;;;;;;;32.26;28.38;100363.80;1742905;82;21106;-75
2021/09/11 07:04:43;;;;;;;15.88;9.05;;;;;;;32.36;27.84;100362.95;1736801;82;21622;-78
2021/09/11 07:07:09;;;;;;;15.13;9.78;;;;;;;32.51;28.15;100362.07;1742840;82;21107;-77
2021/09/11 07:09:37;;;;;;;15.28;9.13;;;;;;;32.80;27.44;100366.55;1742605;82;21685;-77
2021/09/11 07:12:04;;;;;;;15.90;9.35;;;;;;;32.89;27.17;100368.09;1742826;82;21154;-79
2021/09/11 07:14:32;;;;;;;19.60;10.28;;;;;;;32.92;26.75;100372.30;1742530;82;21102;-79
2021/09/11 07:17:00;;;;;;;13.43;9.65;;;;;;;33.06;26.91;100365.97;1742556;82;21156;-79
2021/09/11 07:19:28;;;;;;;14.33;9.40;;;;;;;33.31;26.62;100365.49;1743280;82;21011;-79
2021/09/11 07:21:56;;;;;;;17.35;9.65;;;;;;;33.79;25.96;100368.31;1742940;82;21095;-79
2021/09/11 07:24:23;;;;;;;14.15;9.33;;;;;;;34.15;25.48;100368.60;1742724;82;21945;-78
2021/09/11 07:26:50;;;;;;;11.65;9.40;;;;;;;34.41;24.65;100360.45;1742673;82;21039;-78
2021/09/11 07:29:16;;;;;;;14.68;9.20;;;;;;;34.24;24.58;100360.53;1743772;82;21580;-79
2021/09/11 07:31:43;;;;;;;13.65;9.15;;;;;;;33.84;24.88;100361.22;1742862;82;21037;-79
2021/09/11 07:34:10;;;;;;;14.53;10.10;;;;;;;33.54;25.18;100353.77;1744314;82;21035;-77
2021/09/11 07:36:36;;;;;;;11.08;9.30;;;;;;;33.41;25.37;100353.71;1744644;82;21092;-79
2021/09/11 07:39:04;;;;;;;16.32;9.25;;;;;;;33.27;25.62;100358.25;1749064;82;21102;-78
2021/09/11 07:41:30;;;;;;;13.98;9.43;;;;;;;33.32;25.76;100353.02;1751404;82;21569;-77
2021/09/11 07:43:58;;;;;;;17.52;9.28;;;;;;;33.53;25.53;100355.35;1750972;82;21413;-77
2021/09/11 07:46:24;;;;;;;21.75;10.00;;;;;;;33.46;25.20;100353.11;1750748;82;21082;-78
2021/09/11 07:48:52;;;;;;;16.70;9.40;;;;;;;33.33;26.14;100353.86;1750492;82;21177;-77
2021/09/11 07:51:19;;;;;;;14.95;9.65;;;;;;;33.25;25.80;100352.67;1750918;82;21066;-77
2021/09/11 07:53:46;;;;;;;15.48;10.00;;;;;;;33.15;25.65;100353.86;1751489;82;21067;-77
2021/09/11 07:56:13;;;;;;;16.02;10.50;;;;;;;33.08;26.08;100344.77;1754209;82;21026;-77
2021/09/11 07:58:40;;;;;;;14.85;9.85;;;;;;;33.37;25.66;100357.88;1751565;82;21145;-78
2021/09/11 08:01:06;;;;;;;19.27;10.20;;;;;;;33.27;25.88;100351.92;1751019;82;22154;-80
2021/09/11 08:03:35;;;;;;;20.40;9.63;;;;;;;33.34;25.98;100358.29;1749639;82;21172;-77
2021/09/11 08:06:07;;;;;;;18.05;10.23;;;;;;;33.58;25.44;100353.72;1750733;82;21054;-77
2021/09/11 08:08:32;;;;;;;19.85;9.55;;;;;;;33.63;24.75;100350.38;1750683;82;21612;-77
2021/09/11 08:10:59;;;;;;;19.73;9.85;;;;;;;33.32;25.64;100354.92;1750599;82;21046;-78
2021/09/11 08:13:26;;;;;;;18.05;9.53;;;;;;;33.31;25.57;100348.59;1750602;82;21531;-78
2021/09/11 08:15:52;;;;;;;14.03;9.28;;;;;;;33.26;25.02;100348.88;1750549;82;21300;-77
2021/09/11 08:18:20;;;;;;;18.92;10.65;;;;;;;33.21;25.20;100352.21;1750706;82;21079;-78
2021/09/11 08:20:47;;;;;;;23.55;10.38;;;;;;;33.30;25.46;100345.55;1750666;82;21066;-78
2021/09/11 08:23:13;;;;;;;13.18;9.50;;;;;;;33.32;25.73;100342.11;1750806;82;21050;-78
2021/09/11 08:25:42;;;;;;;14.07;10.00;;;;;;;33.36;25.56;100343.89;1750974;82;21549;-78
2021/09/11 08:28:09;;;;;;;16.07;9.60;;;;;;;33.61;25.19;100342.41;1750442;82;21081;-76
2021/09/11 08:30:38;;;;;;;18.92;9.98;;;;;;;33.95;25.38;100339.27;1750917;82;21110;-78
2021/09/11 08:33:06;;;;;;;16.07;10.75;;;;;;;34.59;24.34;100333.04;1750475;82;21054;-79
2021/09/11 08:35:33;;;;;;;14.98;10.10;;;;;;;35.12;23.62;100324.86;1751065;82;21082;-77
2021/09/11 08:38:02;;;;;;;12.00;9.05;;;;;;;34.97;22.69;100333.28;1749540;81;21487;-79
2021/09/11 08:40:29;;;;;;;14.40;9.73;;;;;;;34.70;22.83;100328.34;1742703;82;21091;-80
2021/09/11 08:42:57;;;;;;;13.68;9.83;;;;;;;34.48;23.16;100333.13;1742647;82;21090;-79
2021/09/11 08:45:24;;;;;;;17.82;9.43;;;;;;;34.32;23.51;100322.06;1743024;82;21086;-78
2021/09/11 08:47:53;;;;;;;16.27;9.65;;;;;;;34.26;23.86;100325.64;1743016;82;21106;-78
2021/09/11 08:50:20;;;;;;;14.80;9.83;;;;;;;33.78;23.89;100329.77;1743052;82;22124;-79
2021/09/11 08:52:50;;;;;;;18.40;10.28;;;;;;;33.69;24.14;100318.17;1742706;82;21044;-77
2021/09/11 08:55:18;;;;;;;13.68;10.30;;;;;;;33.83;23.99;100330.00;1743096;82;22230;-80
2021/09/11 08:58:00;;;;;;;15.70;9.55;;;;;;;33.71;23.67;100315.25;1742933;82;21058;-78
2021/09/11 09:00:48;;;;;;;17.23;9.93;;;;;;;33.83;24.03;100324.53;1743183;82;21085;-78
2021/09/11 09:03:37;;;;;;;19.25;9.23;;;;;;;34.10;23.63;100318.67;1743148;81;21701;-79
2021/09/11 09:06:28;;;;;;;15.63;9.98;;;;;;;33.92;23.21;100321.94;1707475;83;21081;-78
2021/09/11 09:09:14;;;;;;;16.02;8.95;;;;;;;33.58;23.57;100311.39;1743000;81;21081;-77
2021/09/11 09:11:44;;;;;;;16.55;9.73;;;;;;;33.12;23.25;100314.68;1743066;81;21191;-78
2021/09/11 09:14:16;;;;;;;19.67;10.08;;;;;;;33.30;23.64;100312.80;1743559;81;21085;-77
2021/09/11 09:16:45;;;;;;;17.05;8.98;;;;;;;33.37;23.95;100308.75;1743299;82;21520;-77
2021/09/11 09:19:24;;;;;;;15.00;10.45;;;;;;;33.71;23.77;100304.33;1743196;82;21006;-79
2021/09/11 09:21:54;;;;;;;17.37;10.40;;;;;;;34.23;23.63;100300.07;1743083;82;21069;-81
2021/09/11 09:24:37;;;;;;;14.03;9.70;;;;;;;34.46;23.09;100303.28;1743347;82;21022;-78
2021/09/11 09:27:07;;;;;;;17.48;9.60;;;;;;;34.58;22.70;100302.63;1742888;82;21605;-78
2021/09/11 09:29:37;;;;;;;22.20;10.18;;;;;;;34.61;22.97;100302.26;1743089;81;21833;-78
2021/09/11 09:32:04;;;;;;;14.75;8.83;;;;;;;34.35;22.47;100301.16;1742957;82;21062;-78
2021/09/11 09:34:37;;;;;;;16.50;9.53;;;;;;;33.63;23.44;100298.50;1743019;81;21022;-77
2021/09/11 09:37:07;;;;;;;15.30;10.05;;;;;;;33.46;24.17;100299.34;1742893;82;21513;-79
2021/09/11 09:39:46;;;;;;;17.12;10.20;;;;;;;33.44;24.13;100295.98;1742704;81;21101;-78
2021/09/11 09:42:18;;;;;;;14.35;8.80;;;;;;;33.60;24.11;100297.02;1742830;81;21082;-79
2021/09/11 09:44:54;;;;;;;14.53;9.18;;;;;;;33.77;23.59;100289.84;1742638;81;21598;-77
2021/09/11 09:47:23;;;;;;;18.87;9.25;;;;;;;33.96;23.62;100297.27;1743108;82;21038;-76
2021/09/11 09:50:18;;;;;;;15.85;9.20;;;;;;;34.38;23.48;100293.90;1743114;81;21047;-77
2021/09/11 09:52:41;;;;;;;14.33;8.88;;;;;;;34.70;22.78;100290.59;1742357;81;21055;-78
2021/09/11 09:55:08;;;;;;;15.25;9.03;;;;;;;34.84;22.76;100288.98;1743284;82;21086;-78
2021/09/11 09:57:38;;;;;;;15.83;9.53;;;;;;;35.05;21.97;100288.43;1742639;82;21055;-78
2021/09/11 10:00:06;;;;;;;11.65;9.33;;;;;;;35.15;21.59;100290.21;1743505;82;20992;-77
2021/09/11 10:02:34;;;;;;;;;;;;;;;35.09;21.45;100293.26;1745642;82;21047;-77
2021/09/11 10:05:01;;;;;;;12.18;8.78;;;;;;;35.20;21.38;100291.80;1743169;82;20320;-77
2021/09/11 10:07:28;;;;;;;15.30;9.70;;;;;;;35.45;22.04;100286.97;1743015;82;22022;-77
2021/09/11 10:09:55;;;;;;;11.95;8.65;;;;;;;35.33;21.74;100279.12;1743302;82;21070;-77
2021/09/11 10:12:35;;;;;;;11.75;8.38;;;;;;;35.13;20.89;100281.37;1743358;82;21086;-77
2021/09/11 10:15:27;;;;;;;;;;;;;;;34.85;21.48;100282.98;1745002;82;21495;-77
2021/09/11 10:17:56;;;;;;;14.10;8.88;;;;;;;34.58;21.65;100280.75;1746675;82;20136;-74
2021/09/11 10:20:23;;;;;;;13.35;8.10;;;;;;;34.35;21.17;100277.06;1744986;82;21110;-78
2021/09/11 10:23:05;;;;;;;15.20;9.50;;;;;;;33.63;22.36;100282.95;1743085;82;21130;-79
2021/09/11 10:25:43;;;;;;;12.75;9.03;;;;;;;32.96;22.32;100275.41;1743014;82;21050;-78
2021/09/11 10:28:21;;;;;;;12.73;9.30;;;;;;;31.98;23.68;100277.37;1742543;82;21100;-78
2021/09/11 10:31:11;;;;;;;15.25;9.53;;;;;;;31.33;24.46;100278.17;1742922;82;21101;-78
2021/09/11 10:33:48;;;;;;;12.05;9.13;;;;;;;30.96;25.40;100273.15;1722106;82;21562;-78
2021/09/11 10:36:25;;;;;;;18.50;9.93;;;;;;;30.70;25.79;100267.61;1742763;82;21566;-79
2021/09/11 10:38:53;;;;;;;16.12;9.60;;;;;;;30.63;26.22;100265.30;1741234;82;21075;-80
2021/09/11 10:41:20;;;;;;;14.25;9.83;;;;;;;30.78;26.08;100261.75;1709512;82;21030;-77
2021/09/11 10:44:08;;;;;;;12.75;9.95;;;;;;;30.94;25.67;100258.89;1721177;82;21031;-77
2021/09/11 10:46:53;;;;;;;16.10;10.82;;;;;;;31.04;25.56;100259.48;1750817;82;21616;-78
2021/09/11 10:49:37;;;;;;;14.60;9.28;;;;;;;31.13;25.42;100252.08;1750771;82;21033;-78
2021/09/11 10:52:08;;;;;;;13.95;10.30;;;;;;;31.41;25.25;100248.19;1751334;82;21070;-78
2021/09/11 10:54:40;;;;;;;18.40;9.45;;;;;;;31.55;24.69;100251.91;1750870;82;21651;-78
2021/09/11 10:57:16;;;;;;;12.37;8.83;;;;;;;31.46;24.71;100247.09;1751252;82;21070;-79
2021/09/11 10:59:46;;;;;;;14.87;9.25;;;;;;;31.61;24.68;100240.77;1750993;82;21814;-79
2021/09/11 11:02:32;;;;;;;16.52;9.95;;;;;;;31.65;24.47;100237.99;1751018;82;21572;-77
2021/09/11 11:05:09;;;;;;;15.20;9.80;;;;;;;31.60;24.63;100237.73;1750853;82;21132;-79
2021/09/11 11:07:43;;;;;;;13.85;8.90;;;;;;;31.81;24.93;100235.03;1756217;81;21007;-80
2021/09/11 11:10:12;;;;;;;18.92;9.90;;;;;;;32.10;24.34;100233.28;1714764;83;21140;-79
2021/09/11 11:12:45;;;;;;;18.10;9.30;;;;;;;32.35;23.70;100223.66;1751158;81;21092;-77
2021/09/11 11:15:15;;;;;;;20.85;9.50;;;;;;;32.37;24.08;100218.85;1749181;81;21623;-77
2021/09/11 11:17:45;;;;;;;19.12;10.15;;;;;;;32.37;23.93;100223.44;1714754;83;21045;-78
2021/09/11 11:20:14;;;;;;;14.30;9.50;;;;;;;32.03;24.04;100222.84;1750953;81;21109;-78
2021/09/11 11:22:43;;;;;;;17.60;9.75;;;;;;;31.73;24.14;100220.20;1715138;83;21076;-77